CFBMR KPIE-CYYZ
Flight info
| Callsign | CFBMR |
|---|---|
| Flight time | 2h 4m |
| Altitude | 41000 |
| Route | LLRGO1 CAMJO Q99 BLAAN Q69 RICCS DCT OXMAN LINNG3 |
| Aircraft | C750/M-SBDE3FGHRWXY/S |
Departure
| Time | 2026-05-07 18:55 |
|---|---|
| Airport | St. Petersburg Clearwater International Airport (KPIE) |
Arrival
| Time | 2026-05-07 21:00 |
|---|---|
| Airport | Toronto Pearson International Airport (CYYZ) |
| Time | Latitude | Longitude | Altitude | Speed | Heading |
|---|---|---|---|---|---|
| 2026-05-07 18:39 | 27.90488 | -82.69002 | 21 ft | 0 kts | 173° |
| 2026-05-07 18:51 | 27.90485 | -82.69002 | 21 ft | 3 kts | 173° |
| 2026-05-07 18:51 | 27.90466 | -82.68987 | 21 ft | 3 kts | 114° |
| 2026-05-07 18:51 | 27.90462 | -82.68947 | 21 ft | 9 kts | 84° |
| 2026-05-07 18:51 | 27.90491 | -82.68906 | 21 ft | 6 kts | 5° |
| 2026-05-07 18:52 | 27.90544 | -82.68917 | 22 ft | 9 kts | 348° |
| 2026-05-07 18:52 | 27.90615 | -82.68931 | 21 ft | 13 kts | 356° |
| 2026-05-07 18:52 | 27.90712 | -82.68946 | 21 ft | 16 kts | 351° |
| 2026-05-07 18:52 | 27.90836 | -82.68968 | 21 ft | 20 kts | 348° |
| 2026-05-07 18:53 | 27.90977 | -82.68988 | 22 ft | 20 kts | 353° |
| 2026-05-07 18:53 | 27.91110 | -82.69014 | 22 ft | 19 kts | 349° |
| 2026-05-07 18:53 | 27.91233 | -82.69036 | 20 ft | 17 kts | 350° |
| 2026-05-07 18:53 | 27.91347 | -82.69055 | 21 ft | 16 kts | 350° |
| 2026-05-07 18:54 | 27.91453 | -82.69076 | 22 ft | 15 kts | 352° |
| 2026-05-07 18:54 | 27.91542 | -82.69069 | 22 ft | 12 kts | 58° |
| 2026-05-07 18:54 | 27.91556 | -82.68982 | 18 ft | 11 kts | 80° |
| 2026-05-07 18:54 | 27.91553 | -82.68933 | 17 ft | 3 kts | 176° |
| 2026-05-07 18:55 | 27.91251 | -82.68879 | 17 ft | 101 kts | 171° |
| 2026-05-07 18:55 | 27.90347 | -82.68720 | 285 ft | 141 kts | 174° |
| 2026-05-07 18:55 | 27.89348 | -82.68487 | 983 ft | 153 kts | 170° |
| 2026-05-07 18:55 | 27.88249 | -82.68201 | 1516 ft | 176 kts | 180° |
| 2026-05-07 18:56 | 27.87046 | -82.68705 | 1454 ft | 206 kts | 224° |
| 2026-05-07 18:56 | 27.86435 | -82.70291 | 1592 ft | 241 kts | 262° |
| 2026-05-07 18:56 | 27.86352 | -82.72228 | 2180 ft | 251 kts | 269° |
| 2026-05-07 18:56 | 27.86955 | -82.74065 | 3229 ft | 258 kts | 305° |
| 2026-05-07 18:57 | 27.88381 | -82.75317 | 4270 ft | 262 kts | 326° |
| 2026-05-07 18:57 | 27.90150 | -82.75898 | 5176 ft | 272 kts | 356° |
| 2026-05-07 18:57 | 27.92026 | -82.75625 | 6165 ft | 274 kts | 8° |
| 2026-05-07 18:57 | 27.93915 | -82.75164 | 6982 ft | 281 kts | 10° |
| 2026-05-07 18:58 | 27.95831 | -82.74648 | 7851 ft | 287 kts | 10° |
| 2026-05-07 18:58 | 27.97796 | -82.74133 | 8772 ft | 293 kts | 9° |
| 2026-05-07 18:58 | 27.99803 | -82.73622 | 9658 ft | 299 kts | 9° |
| 2026-05-07 18:58 | 28.01862 | -82.73096 | 10352 ft | 310 kts | 9° |
| 2026-05-07 18:59 | 28.04030 | -82.72539 | 10572 ft | 335 kts | 10° |
| 2026-05-07 18:59 | 28.06410 | -82.71922 | 10826 ft | 357 kts | 10° |
| 2026-05-07 18:59 | 28.08812 | -82.71298 | 11279 ft | 363 kts | 10° |
| 2026-05-07 18:59 | 28.11327 | -82.70824 | 11682 ft | 369 kts | 360° |
| 2026-05-07 19:00 | 28.13892 | -82.70813 | 12412 ft | 369 kts | 356° |
| 2026-05-07 19:00 | 28.16470 | -82.70846 | 13112 ft | 372 kts | 356° |
| 2026-05-07 19:00 | 28.19079 | -82.70830 | 13797 ft | 377 kts | 357° |
| 2026-05-07 19:00 | 28.21718 | -82.70791 | 14378 ft | 381 kts | 356° |
| 2026-05-07 19:01 | 28.24383 | -82.70622 | 14935 ft | 388 kts | 6° |
| 2026-05-07 19:01 | 28.26974 | -82.69657 | 15577 ft | 396 kts | 21° |
| 2026-05-07 19:01 | 28.29296 | -82.67928 | 16206 ft | 406 kts | 37° |
| 2026-05-07 19:01 | 28.31211 | -82.65525 | 16827 ft | 413 kts | 49° |
| 2026-05-07 19:02 | 28.33003 | -82.62968 | 17421 ft | 415 kts | 45° |
| 2026-05-07 19:02 | 28.35192 | -82.60841 | 18022 ft | 412 kts | 30° |
| 2026-05-07 19:02 | 28.37664 | -82.59331 | 18650 ft | 408 kts | 17° |
| 2026-05-07 19:02 | 28.40375 | -82.58453 | 19232 ft | 404 kts | 5° |
| 2026-05-07 19:03 | 28.43168 | -82.58247 | 19810 ft | 401 kts | 354° |
| 2026-05-07 19:03 | 28.45965 | -82.58323 | 20401 ft | 405 kts | 353° |
| 2026-05-07 19:03 | 28.48800 | -82.58392 | 21034 ft | 409 kts | 353° |
| 2026-05-07 19:03 | 28.51664 | -82.58460 | 21614 ft | 413 kts | 353° |
| 2026-05-07 19:04 | 28.54555 | -82.58534 | 22202 ft | 418 kts | 353° |
| 2026-05-07 19:04 | 28.57493 | -82.58611 | 22793 ft | 422 kts | 353° |
| 2026-05-07 19:04 | 28.60438 | -82.58684 | 23372 ft | 427 kts | 353° |
| 2026-05-07 19:04 | 28.63385 | -82.58757 | 23880 ft | 431 kts | 353° |
| 2026-05-07 19:05 | 28.66392 | -82.58837 | 24391 ft | 433 kts | 352° |
| 2026-05-07 19:05 | 28.69399 | -82.59178 | 24866 ft | 432 kts | 346° |
| 2026-05-07 19:05 | 28.72394 | -82.59620 | 25389 ft | 436 kts | 347° |
| 2026-05-07 19:05 | 28.75417 | -82.60022 | 25923 ft | 439 kts | 347° |
| 2026-05-07 19:06 | 28.78467 | -82.60430 | 26458 ft | 441 kts | 346° |
| 2026-05-07 19:06 | 28.84613 | -82.61309 | 27489 ft | 448 kts | 346° |
| 2026-05-07 19:06 | 28.87720 | -82.61737 | 27988 ft | 452 kts | 346° |
| 2026-05-07 19:07 | 28.90854 | -82.62168 | 28482 ft | 455 kts | 346° |
| 2026-05-07 19:07 | 28.94015 | -82.62612 | 28972 ft | 458 kts | 346° |
| 2026-05-07 19:07 | 28.97188 | -82.63060 | 29439 ft | 462 kts | 346° |
| 2026-05-07 19:07 | 29.00388 | -82.63507 | 29892 ft | 465 kts | 346° |
| 2026-05-07 19:08 | 29.03568 | -82.63949 | 30307 ft | 468 kts | 346° |
| 2026-05-07 19:08 | 29.06808 | -82.64404 | 30699 ft | 471 kts | 346° |
| 2026-05-07 19:08 | 29.10070 | -82.64863 | 31078 ft | 473 kts | 346° |
| 2026-05-07 19:08 | 29.13331 | -82.65317 | 31674 ft | 470 kts | 346° |
| 2026-05-07 19:09 | 29.16567 | -82.65769 | 32236 ft | 468 kts | 346° |
| 2026-05-07 19:09 | 29.19799 | -82.66225 | 32777 ft | 467 kts | 345° |
| 2026-05-07 19:09 | 29.23017 | -82.66680 | 33340 ft | 465 kts | 345° |
| 2026-05-07 19:09 | 29.26229 | -82.67130 | 33908 ft | 464 kts | 345° |
| 2026-05-07 19:10 | 29.29433 | -82.67580 | 34426 ft | 462 kts | 345° |
| 2026-05-07 19:10 | 29.32623 | -82.68029 | 34971 ft | 459 kts | 345° |
| 2026-05-07 19:10 | 29.35786 | -82.68475 | 35583 ft | 456 kts | 345° |
| 2026-05-07 19:10 | 29.38917 | -82.68916 | 36196 ft | 452 kts | 345° |
| 2026-05-07 19:11 | 29.42045 | -82.69295 | 36735 ft | 454 kts | 349° |
| 2026-05-07 19:11 | 29.45222 | -82.69296 | 37291 ft | 456 kts | 353° |
| 2026-05-07 19:11 | 29.48378 | -82.69262 | 37894 ft | 452 kts | 352° |
| 2026-05-07 19:11 | 29.51514 | -82.69260 | 38509 ft | 449 kts | 352° |
| 2026-05-07 19:12 | 29.54630 | -82.69252 | 39058 ft | 447 kts | 352° |
| 2026-05-07 19:12 | 29.57735 | -82.69224 | 39510 ft | 446 kts | 352° |
| 2026-05-07 19:12 | 29.60839 | -82.69198 | 39934 ft | 446 kts | 352° |
| 2026-05-07 19:12 | 29.63945 | -82.69183 | 40380 ft | 446 kts | 352° |
| 2026-05-07 19:13 | 29.67007 | -82.69169 | 40780 ft | 446 kts | 352° |
| 2026-05-07 19:13 | 29.70120 | -82.69148 | 41055 ft | 450 kts | 352° |
| 2026-05-07 19:13 | 29.76522 | -82.69113 | 41044 ft | 470 kts | 352° |
| 2026-05-07 19:14 | 29.83186 | -82.69067 | 41058 ft | 487 kts | 352° |
| 2026-05-07 19:14 | 29.90087 | -82.69025 | 41054 ft | 503 kts | 352° |
| 2026-05-07 19:15 | 29.97182 | -82.68976 | 41049 ft | 512 kts | 352° |
| 2026-05-07 19:15 | 30.04321 | -82.68931 | 41047 ft | 513 kts | 352° |
| 2026-05-07 19:16 | 30.11420 | -82.68887 | 41043 ft | 513 kts | 352° |
| 2026-05-07 19:16 | 30.18576 | -82.68842 | 41045 ft | 514 kts | 352° |
| 2026-05-07 19:17 | 30.25727 | -82.68798 | 41054 ft | 513 kts | 352° |
| 2026-05-07 19:17 | 30.32868 | -82.68753 | 41058 ft | 513 kts | 352° |
| 2026-05-07 19:18 | 30.40019 | -82.68708 | 41056 ft | 514 kts | 352° |
| 2026-05-07 19:18 | 30.47173 | -82.68663 | 41064 ft | 514 kts | 352° |
| 2026-05-07 19:19 | 30.54315 | -82.67923 | 41064 ft | 526 kts | 2° |
| 2026-05-07 19:19 | 30.61531 | -82.66366 | 41079 ft | 526 kts | 2° |
| 2026-05-07 19:20 | 30.68736 | -82.64847 | 41076 ft | 527 kts | 2° |
| 2026-05-07 19:20 | 30.75944 | -82.63295 | 41081 ft | 527 kts | 2° |
| 2026-05-07 19:21 | 30.83165 | -82.61760 | 41068 ft | 526 kts | 2° |
| 2026-05-07 19:21 | 30.90374 | -82.60210 | 41040 ft | 527 kts | 2° |
| 2026-05-07 19:22 | 30.97584 | -82.58668 | 41002 ft | 527 kts | 2° |
| 2026-05-07 19:22 | 31.04754 | -82.57123 | 41017 ft | 527 kts | 2° |
| 2026-05-07 19:23 | 31.11824 | -82.54384 | 41002 ft | 547 kts | 18° |
| 2026-05-07 19:23 | 31.18604 | -82.50261 | 41026 ft | 549 kts | 20° |
| 2026-05-07 19:24 | 31.25388 | -82.46162 | 40990 ft | 549 kts | 20° |
| 2026-05-07 19:24 | 31.32166 | -82.42024 | 40982 ft | 552 kts | 19° |
| 2026-05-07 19:25 | 31.38995 | -82.37873 | 40982 ft | 552 kts | 19° |
| 2026-05-07 19:25 | 31.45803 | -82.33709 | 40977 ft | 551 kts | 19° |
| 2026-05-07 19:26 | 31.52603 | -82.29558 | 40964 ft | 551 kts | 19° |
| 2026-05-07 19:26 | 31.59409 | -82.25387 | 40962 ft | 554 kts | 19° |
| 2026-05-07 19:27 | 31.66255 | -82.21189 | 40941 ft | 555 kts | 19° |
| 2026-05-07 19:27 | 31.73095 | -82.16985 | 40937 ft | 555 kts | 19° |
| 2026-05-07 19:28 | 31.79934 | -82.12777 | 40938 ft | 555 kts | 19° |
| 2026-05-07 19:28 | 31.86786 | -82.08554 | 40949 ft | 559 kts | 19° |
| 2026-05-07 19:29 | 31.93687 | -82.04290 | 40953 ft | 560 kts | 19° |
| 2026-05-07 19:29 | 32.00591 | -82.00020 | 40955 ft | 560 kts | 19° |
| 2026-05-07 19:30 | 32.07449 | -81.95771 | 40948 ft | 561 kts | 19° |
| 2026-05-07 19:30 | 32.14371 | -81.91479 | 40947 ft | 563 kts | 18° |
| 2026-05-07 19:31 | 32.21374 | -81.87376 | 40949 ft | 562 kts | 17° |
| 2026-05-07 19:31 | 32.28373 | -81.83252 | 40941 ft | 561 kts | 17° |
| 2026-05-07 19:32 | 32.35364 | -81.79155 | 40959 ft | 561 kts | 17° |
| 2026-05-07 19:32 | 32.42379 | -81.75015 | 40924 ft | 564 kts | 17° |
| 2026-05-07 19:33 | 32.49361 | -81.70900 | 40922 ft | 564 kts | 17° |
| 2026-05-07 19:33 | 32.56392 | -81.66742 | 40922 ft | 564 kts | 17° |
| 2026-05-07 19:34 | 32.63405 | -81.62590 | 40943 ft | 563 kts | 16° |
| 2026-05-07 19:34 | 32.70433 | -81.58424 | 40946 ft | 564 kts | 16° |
| 2026-05-07 19:35 | 32.77448 | -81.54254 | 40903 ft | 564 kts | 16° |
| 2026-05-07 19:35 | 32.83289 | -81.50780 | 40911 ft | 564 kts | 17° |
| 2026-05-07 19:36 | 32.90315 | -81.46592 | 40908 ft | 566 kts | 17° |
| 2026-05-07 19:36 | 32.97367 | -81.42379 | 40914 ft | 567 kts | 17° |
| 2026-05-07 19:37 | 33.04411 | -81.38166 | 40920 ft | 566 kts | 17° |
| 2026-05-07 19:37 | 33.11452 | -81.33946 | 40913 ft | 566 kts | 17° |
| 2026-05-07 19:38 | 33.18496 | -81.29717 | 40919 ft | 566 kts | 17° |
| 2026-05-07 19:38 | 33.25526 | -81.25488 | 40913 ft | 565 kts | 17° |
| 2026-05-07 19:39 | 33.32507 | -81.21282 | 40905 ft | 565 kts | 17° |
| 2026-05-07 19:39 | 33.39529 | -81.17045 | 40867 ft | 567 kts | 16° |
| 2026-05-07 19:40 | 33.46608 | -81.12763 | 40869 ft | 570 kts | 17° |
| 2026-05-07 19:40 | 33.53689 | -81.08471 | 40869 ft | 570 kts | 17° |
| 2026-05-07 19:41 | 33.60769 | -81.04176 | 40871 ft | 571 kts | 17° |
| 2026-05-07 19:41 | 33.67877 | -80.99855 | 40873 ft | 575 kts | 16° |
| 2026-05-07 19:42 | 33.75030 | -80.95491 | 40874 ft | 575 kts | 16° |
| 2026-05-07 19:42 | 33.82131 | -80.91210 | 40849 ft | 570 kts | 13° |
| 2026-05-07 19:43 | 33.85790 | -80.89559 | 40840 ft | 554 kts | 5° |
| 2026-05-07 19:43 | 33.89492 | -80.88487 | 40856 ft | 541 kts | 358° |
| 2026-05-07 19:43 | 33.96900 | -80.87175 | 40863 ft | 539 kts | 356° |
| 2026-05-07 19:44 | 34.04327 | -80.85803 | 40853 ft | 539 kts | 356° |
| 2026-05-07 19:44 | 34.11740 | -80.84491 | 40879 ft | 539 kts | 356° |
| 2026-05-07 19:45 | 34.19185 | -80.83133 | 40865 ft | 541 kts | 355° |
| 2026-05-07 19:45 | 34.26582 | -80.81800 | 40868 ft | 541 kts | 355° |
| 2026-05-07 19:46 | 34.34038 | -80.80445 | 40874 ft | 541 kts | 355° |
| 2026-05-07 19:46 | 34.41481 | -80.79096 | 40866 ft | 543 kts | 355° |
| 2026-05-07 19:47 | 34.48959 | -80.77734 | 40872 ft | 543 kts | 355° |
| 2026-05-07 19:47 | 34.56423 | -80.76373 | 40879 ft | 542 kts | 355° |
| 2026-05-07 19:48 | 34.63898 | -80.75009 | 40884 ft | 543 kts | 355° |
| 2026-05-07 19:48 | 34.71401 | -80.73638 | 40880 ft | 546 kts | 355° |
| 2026-05-07 19:49 | 34.78902 | -80.72259 | 40882 ft | 546 kts | 355° |
| 2026-05-07 19:49 | 34.86420 | -80.70882 | 40874 ft | 546 kts | 355° |
| 2026-05-07 19:50 | 34.93943 | -80.69496 | 40868 ft | 546 kts | 355° |
| 2026-05-07 19:50 | 35.01395 | -80.68123 | 40859 ft | 546 kts | 355° |
| 2026-05-07 19:51 | 35.08916 | -80.66735 | 40860 ft | 546 kts | 355° |
| 2026-05-07 19:51 | 35.16424 | -80.65347 | 40876 ft | 548 kts | 355° |
| 2026-05-07 19:52 | 35.23980 | -80.63946 | 40892 ft | 549 kts | 355° |
| 2026-05-07 19:52 | 35.31527 | -80.62544 | 40904 ft | 549 kts | 355° |
| 2026-05-07 19:53 | 35.39079 | -80.61140 | 40931 ft | 549 kts | 355° |
| 2026-05-07 19:53 | 35.46674 | -80.59726 | 40855 ft | 552 kts | 355° |
| 2026-05-07 19:54 | 35.54231 | -80.58310 | 40856 ft | 552 kts | 354° |
| 2026-05-07 19:54 | 35.61828 | -80.56893 | 40856 ft | 552 kts | 355° |
| 2026-05-07 19:55 | 35.69422 | -80.55466 | 40859 ft | 552 kts | 355° |
| 2026-05-07 19:55 | 35.77034 | -80.54040 | 40859 ft | 552 kts | 355° |
| 2026-05-07 19:56 | 35.84586 | -80.52616 | 40859 ft | 552 kts | 355° |
| 2026-05-07 19:56 | 35.92185 | -80.51185 | 40850 ft | 552 kts | 354° |
| 2026-05-07 19:57 | 35.99783 | -80.49748 | 40854 ft | 552 kts | 354° |
| 2026-05-07 19:57 | 36.07392 | -80.48309 | 40846 ft | 552 kts | 354° |
| 2026-05-07 19:58 | 36.14997 | -80.46867 | 40848 ft | 554 kts | 354° |
| 2026-05-07 19:58 | 36.22615 | -80.45418 | 40859 ft | 553 kts | 355° |
| 2026-05-07 19:59 | 36.30181 | -80.43979 | 40906 ft | 553 kts | 354° |
| 2026-05-07 19:59 | 36.37789 | -80.42527 | 40942 ft | 554 kts | 354° |
| 2026-05-07 20:00 | 36.45411 | -80.41047 | 40923 ft | 555 kts | 355° |
| 2026-05-07 20:00 | 36.53042 | -80.39449 | 40919 ft | 555 kts | 355° |
| 2026-05-07 20:01 | 36.60662 | -80.37928 | 40968 ft | 555 kts | 355° |
| 2026-05-07 20:01 | 36.68303 | -80.36345 | 40916 ft | 555 kts | 355° |
| 2026-05-07 20:02 | 36.75906 | -80.34905 | 40908 ft | 547 kts | 352° |
| 2026-05-07 20:02 | 36.83476 | -80.33862 | 40904 ft | 548 kts | 352° |
| 2026-05-07 20:03 | 36.91058 | -80.32762 | 40925 ft | 546 kts | 352° |
| 2026-05-07 20:03 | 36.98601 | -80.31706 | 40939 ft | 546 kts | 352° |
| 2026-05-07 20:04 | 37.06158 | -80.30620 | 40950 ft | 546 kts | 352° |
| 2026-05-07 20:04 | 37.13660 | -80.29551 | 40964 ft | 545 kts | 352° |
| 2026-05-07 20:05 | 37.21196 | -80.28474 | 40965 ft | 545 kts | 352° |
| 2026-05-07 20:05 | 37.28734 | -80.27392 | 40930 ft | 546 kts | 352° |
| 2026-05-07 20:06 | 37.36303 | -80.26309 | 40940 ft | 548 kts | 353° |
| 2026-05-07 20:06 | 37.43885 | -80.25212 | 40935 ft | 549 kts | 353° |
| 2026-05-07 20:07 | 37.51463 | -80.24120 | 40931 ft | 548 kts | 353° |
| 2026-05-07 20:07 | 37.59049 | -80.23028 | 40940 ft | 551 kts | 353° |
| 2026-05-07 20:08 | 37.66671 | -80.21916 | 40940 ft | 551 kts | 354° |
| 2026-05-07 20:08 | 37.74281 | -80.20780 | 40942 ft | 551 kts | 354° |
| 2026-05-07 20:09 | 37.81913 | -80.19644 | 40942 ft | 554 kts | 355° |
| 2026-05-07 20:10 | 37.93335 | -80.17932 | 40940 ft | 553 kts | 355° |
| 2026-05-07 20:10 | 38.00982 | -80.16789 | 40912 ft | 553 kts | 355° |
| 2026-05-07 20:11 | 38.08608 | -80.15638 | 40903 ft | 550 kts | 354° |
| 2026-05-07 20:11 | 38.16226 | -80.14498 | 40905 ft | 551 kts | 354° |
| 2026-05-07 20:12 | 38.23838 | -80.13343 | 40918 ft | 551 kts | 354° |
| 2026-05-07 20:12 | 38.31481 | -80.12195 | 40898 ft | 553 kts | 355° |
| 2026-05-07 20:13 | 38.39042 | -80.11291 | 40897 ft | 542 kts | 350° |
| 2026-05-07 20:13 | 38.46648 | -80.10897 | 40905 ft | 544 kts | 350° |
| 2026-05-07 20:14 | 38.54223 | -80.10461 | 40917 ft | 545 kts | 351° |
| 2026-05-07 20:14 | 38.61751 | -80.10062 | 40918 ft | 545 kts | 351° |
| 2026-05-07 20:15 | 38.69341 | -80.09633 | 40928 ft | 545 kts | 351° |
| 2026-05-07 20:15 | 38.76910 | -80.09222 | 40936 ft | 544 kts | 351° |
| 2026-05-07 20:16 | 38.84482 | -80.08799 | 40939 ft | 545 kts | 351° |
| 2026-05-07 20:16 | 38.92068 | -80.08317 | 40919 ft | 551 kts | 354° |
| 2026-05-07 20:17 | 38.99747 | -80.06717 | 40939 ft | 560 kts | 359° |
| 2026-05-07 20:17 | 39.07382 | -80.05098 | 40934 ft | 559 kts | 358° |
| 2026-05-07 20:18 | 39.15061 | -80.03431 | 40930 ft | 560 kts | 359° |
| 2026-05-07 20:18 | 39.22758 | -80.01770 | 40933 ft | 560 kts | 359° |
| 2026-05-07 20:19 | 39.30447 | -80.00105 | 40933 ft | 560 kts | 359° |
| 2026-05-07 20:19 | 39.38147 | -79.98431 | 40988 ft | 560 kts | 359° |
| 2026-05-07 20:20 | 39.45825 | -79.96761 | 40933 ft | 559 kts | 359° |
| 2026-05-07 20:20 | 39.53491 | -79.95089 | 40936 ft | 559 kts | 359° |
| 2026-05-07 20:21 | 39.61177 | -79.93410 | 40943 ft | 560 kts | 359° |
| 2026-05-07 20:21 | 39.68793 | -79.91738 | 40939 ft | 558 kts | 359° |
| 2026-05-07 20:22 | 39.76452 | -79.90061 | 40938 ft | 559 kts | 359° |
| 2026-05-07 20:22 | 39.84116 | -79.88372 | 40934 ft | 559 kts | 359° |
| 2026-05-07 20:23 | 39.91761 | -79.86685 | 40927 ft | 557 kts | 359° |
| 2026-05-07 20:23 | 39.99403 | -79.84997 | 40921 ft | 557 kts | 359° |
| 2026-05-07 20:24 | 40.07055 | -79.83301 | 40924 ft | 557 kts | 359° |
| 2026-05-07 20:24 | 40.14697 | -79.81604 | 40913 ft | 557 kts | 359° |
| 2026-05-07 20:25 | 40.22335 | -79.79905 | 40907 ft | 557 kts | 359° |
| 2026-05-07 20:25 | 40.30005 | -79.78196 | 40902 ft | 560 kts | 359° |
| 2026-05-07 20:26 | 40.37684 | -79.76474 | 40900 ft | 559 kts | 359° |
| 2026-05-07 20:26 | 40.45303 | -79.74769 | 40925 ft | 559 kts | 359° |
| 2026-05-07 20:27 | 40.52994 | -79.73040 | 40917 ft | 559 kts | 360° |
| 2026-05-07 20:27 | 40.59372 | -79.71604 | 40923 ft | 559 kts | 360° |
| 2026-05-07 20:28 | 40.67046 | -79.69875 | 40917 ft | 559 kts | 360° |
| 2026-05-07 20:28 | 40.74702 | -79.68141 | 40927 ft | 558 kts | 0° |
| 2026-05-07 20:29 | 40.82359 | -79.66408 | 40923 ft | 558 kts | 0° |
| 2026-05-07 20:29 | 40.90027 | -79.64664 | 40932 ft | 559 kts | 0° |
| 2026-05-07 20:30 | 40.97640 | -79.62931 | 40914 ft | 558 kts | 0° |
| 2026-05-07 20:30 | 41.05306 | -79.61181 | 40920 ft | 559 kts | 0° |
| 2026-05-07 20:31 | 41.12979 | -79.59429 | 40921 ft | 560 kts | 0° |
| 2026-05-07 20:31 | 41.20657 | -79.57664 | 40922 ft | 560 kts | 1° |
| 2026-05-07 20:32 | 41.28340 | -79.55899 | 40915 ft | 560 kts | 0° |
| 2026-05-07 20:32 | 41.36028 | -79.54128 | 40916 ft | 560 kts | 1° |
| 2026-05-07 20:33 | 41.43719 | -79.52350 | 40922 ft | 560 kts | 1° |
| 2026-05-07 20:33 | 41.51410 | -79.50571 | 40985 ft | 560 kts | 1° |
| 2026-05-07 20:33 | 41.55232 | -79.49681 | 40436 ft | 555 kts | 1° |
| 2026-05-07 20:34 | 41.59019 | -79.48797 | 39820 ft | 551 kts | 1° |
| 2026-05-07 20:34 | 41.62743 | -79.47935 | 39231 ft | 549 kts | 1° |
| 2026-05-07 20:34 | 41.66508 | -79.47065 | 38626 ft | 550 kts | 1° |
| 2026-05-07 20:34 | 41.70275 | -79.46186 | 37960 ft | 549 kts | 0° |
| 2026-05-07 20:35 | 41.74041 | -79.45303 | 37365 ft | 550 kts | 0° |
| 2026-05-07 20:35 | 41.77813 | -79.44422 | 36756 ft | 550 kts | 0° |
| 2026-05-07 20:35 | 41.81588 | -79.43542 | 36155 ft | 549 kts | 0° |
| 2026-05-07 20:35 | 41.85328 | -79.42660 | 35542 ft | 542 kts | 0° |
| 2026-05-07 20:36 | 41.89017 | -79.41789 | 34944 ft | 536 kts | 360° |
| 2026-05-07 20:36 | 41.92680 | -79.40934 | 34395 ft | 530 kts | 360° |
| 2026-05-07 20:36 | 41.96292 | -79.40090 | 33746 ft | 525 kts | 360° |
| 2026-05-07 20:36 | 41.99871 | -79.39243 | 33143 ft | 519 kts | 359° |
| 2026-05-07 20:37 | 42.03417 | -79.38407 | 32567 ft | 515 kts | 359° |
| 2026-05-07 20:37 | 42.06940 | -79.37580 | 31998 ft | 512 kts | 359° |
| 2026-05-07 20:37 | 42.10426 | -79.36765 | 31430 ft | 505 kts | 358° |
| 2026-05-07 20:37 | 42.13869 | -79.36344 | 30885 ft | 492 kts | 351° |
| 2026-05-07 20:38 | 42.17238 | -79.36113 | 30345 ft | 488 kts | 350° |
| 2026-05-07 20:38 | 42.20619 | -79.35868 | 29805 ft | 485 kts | 351° |
| 2026-05-07 20:38 | 42.23983 | -79.35577 | 29250 ft | 481 kts | 351° |
| 2026-05-07 20:38 | 42.27313 | -79.35291 | 28718 ft | 477 kts | 351° |
| 2026-05-07 20:39 | 42.30616 | -79.35036 | 28190 ft | 473 kts | 351° |
| 2026-05-07 20:39 | 42.33901 | -79.34787 | 27663 ft | 470 kts | 351° |
| 2026-05-07 20:39 | 42.37156 | -79.34521 | 27144 ft | 467 kts | 352° |
| 2026-05-07 20:39 | 42.40394 | -79.34251 | 26632 ft | 463 kts | 352° |
| 2026-05-07 20:40 | 42.43600 | -79.33993 | 26117 ft | 460 kts | 352° |
| 2026-05-07 20:40 | 42.46783 | -79.33743 | 25611 ft | 457 kts | 352° |
| 2026-05-07 20:40 | 42.49950 | -79.33487 | 25107 ft | 453 kts | 353° |
| 2026-05-07 20:40 | 42.53049 | -79.33233 | 24650 ft | 450 kts | 353° |
| 2026-05-07 20:41 | 42.56166 | -79.32979 | 24119 ft | 446 kts | 354° |
| 2026-05-07 20:41 | 42.59254 | -79.32731 | 23633 ft | 443 kts | 354° |
| 2026-05-07 20:41 | 42.62315 | -79.32485 | 23092 ft | 439 kts | 354° |
| 2026-05-07 20:41 | 42.65348 | -79.32236 | 22607 ft | 435 kts | 354° |
| 2026-05-07 20:42 | 42.68352 | -79.31992 | 22130 ft | 431 kts | 355° |
| 2026-05-07 20:42 | 42.71333 | -79.31751 | 21654 ft | 427 kts | 355° |
| 2026-05-07 20:42 | 42.74291 | -79.31510 | 21192 ft | 422 kts | 355° |
| 2026-05-07 20:42 | 42.77213 | -79.31270 | 20719 ft | 418 kts | 355° |
| 2026-05-07 20:43 | 42.80104 | -79.31036 | 20259 ft | 414 kts | 356° |
| 2026-05-07 20:43 | 42.82922 | -79.30819 | 19808 ft | 408 kts | 355° |
| 2026-05-07 20:43 | 42.85726 | -79.30984 | 19352 ft | 400 kts | 348° |
| 2026-05-07 20:43 | 42.88484 | -79.31300 | 18914 ft | 396 kts | 348° |
| 2026-05-07 20:44 | 42.91231 | -79.31595 | 18476 ft | 393 kts | 349° |
| 2026-05-07 20:44 | 42.93944 | -79.31843 | 18110 ft | 391 kts | 349° |
| 2026-05-07 20:44 | 42.96637 | -79.32096 | 17660 ft | 386 kts | 349° |
| 2026-05-07 20:44 | 42.99306 | -79.32373 | 17232 ft | 383 kts | 349° |
| 2026-05-07 20:45 | 43.01953 | -79.32650 | 16803 ft | 380 kts | 349° |
| 2026-05-07 20:45 | 43.04587 | -79.32907 | 16382 ft | 378 kts | 350° |
| 2026-05-07 20:45 | 43.07207 | -79.33160 | 15963 ft | 375 kts | 350° |
| 2026-05-07 20:45 | 43.09802 | -79.33419 | 15544 ft | 373 kts | 349° |
| 2026-05-07 20:46 | 43.12383 | -79.33682 | 15137 ft | 370 kts | 349° |
| 2026-05-07 20:46 | 43.14950 | -79.33940 | 14728 ft | 367 kts | 350° |
| 2026-05-07 20:46 | 43.17486 | -79.34192 | 14318 ft | 364 kts | 350° |
| 2026-05-07 20:46 | 43.19975 | -79.34442 | 13919 ft | 362 kts | 350° |
| 2026-05-07 20:47 | 43.22480 | -79.34668 | 13488 ft | 360 kts | 351° |
| 2026-05-07 20:47 | 43.25017 | -79.34774 | 13160 ft | 360 kts | 354° |
| 2026-05-07 20:47 | 43.27520 | -79.34754 | 12885 ft | 359 kts | 355° |
| 2026-05-07 20:47 | 43.30012 | -79.34742 | 12627 ft | 357 kts | 354° |
| 2026-05-07 20:48 | 43.32465 | -79.34791 | 12382 ft | 356 kts | 354° |
| 2026-05-07 20:48 | 43.34940 | -79.34844 | 12061 ft | 355 kts | 354° |
| 2026-05-07 20:48 | 43.37397 | -79.34865 | 11606 ft | 353 kts | 355° |
| 2026-05-07 20:48 | 43.39835 | -79.34882 | 11150 ft | 345 kts | 355° |
| 2026-05-07 20:49 | 43.42153 | -79.34904 | 10738 ft | 320 kts | 355° |
| 2026-05-07 20:49 | 43.44310 | -79.34932 | 10367 ft | 300 kts | 354° |
| 2026-05-07 20:49 | 43.46348 | -79.34962 | 10011 ft | 289 kts | 354° |
| 2026-05-07 20:49 | 43.48349 | -79.34991 | 9632 ft | 287 kts | 354° |
| 2026-05-07 20:50 | 43.50341 | -79.35015 | 9248 ft | 285 kts | 355° |
| 2026-05-07 20:50 | 43.52312 | -79.35037 | 8879 ft | 283 kts | 355° |
| 2026-05-07 20:50 | 43.54276 | -79.35060 | 8516 ft | 280 kts | 355° |
| 2026-05-07 20:50 | 43.56213 | -79.35083 | 8141 ft | 276 kts | 355° |
| 2026-05-07 20:51 | 43.58121 | -79.35107 | 7784 ft | 274 kts | 355° |
| 2026-05-07 20:51 | 43.60022 | -79.35131 | 7415 ft | 272 kts | 355° |
| 2026-05-07 20:51 | 43.61913 | -79.35153 | 7054 ft | 271 kts | 355° |
| 2026-05-07 20:51 | 43.63791 | -79.35176 | 6706 ft | 268 kts | 355° |
| 2026-05-07 20:52 | 43.65612 | -79.35194 | 6358 ft | 255 kts | 355° |
| 2026-05-07 20:52 | 43.67349 | -79.35213 | 6031 ft | 243 kts | 355° |
| 2026-05-07 20:52 | 43.68969 | -79.35232 | 5736 ft | 227 kts | 355° |
| 2026-05-07 20:52 | 43.70522 | -79.35253 | 5445 ft | 221 kts | 355° |
| 2026-05-07 20:53 | 43.72045 | -79.35318 | 5155 ft | 217 kts | 350° |
| 2026-05-07 20:53 | 43.73391 | -79.36130 | 4839 ft | 209 kts | 320° |
| 2026-05-07 20:53 | 43.74452 | -79.37484 | 4626 ft | 203 kts | 314° |
| 2026-05-07 20:53 | 43.75468 | -79.38821 | 4379 ft | 202 kts | 315° |
| 2026-05-07 20:54 | 43.76491 | -79.40150 | 4113 ft | 201 kts | 315° |
| 2026-05-07 20:54 | 43.77508 | -79.41470 | 3846 ft | 199 kts | 315° |
| 2026-05-07 20:54 | 43.78495 | -79.42754 | 3585 ft | 187 kts | 315° |
| 2026-05-07 20:54 | 43.79405 | -79.43940 | 3353 ft | 175 kts | 313° |
| 2026-05-07 20:55 | 43.80038 | -79.45301 | 3099 ft | 168 kts | 289° |
| 2026-05-07 20:55 | 43.80143 | -79.46988 | 2988 ft | 184 kts | 263° |
| 2026-05-07 20:55 | 43.79635 | -79.48610 | 2955 ft | 184 kts | 237° |
| 2026-05-07 20:55 | 43.78777 | -79.49858 | 2839 ft | 177 kts | 229° |
| 2026-05-07 20:56 | 43.77932 | -79.51087 | 2675 ft | 176 kts | 231° |
| 2026-05-07 20:56 | 43.77107 | -79.52296 | 2502 ft | 159 kts | 231° |
| 2026-05-07 20:56 | 43.76422 | -79.53285 | 2354 ft | 128 kts | 233° |
| 2026-05-07 20:56 | 43.75843 | -79.54133 | 2235 ft | 118 kts | 233° |
| 2026-05-07 20:57 | 43.75286 | -79.54951 | 2149 ft | 117 kts | 233° |
| 2026-05-07 20:57 | 43.74728 | -79.55769 | 2058 ft | 116 kts | 233° |
| 2026-05-07 20:57 | 43.74168 | -79.56584 | 1978 ft | 117 kts | 231° |
| 2026-05-07 20:57 | 43.73608 | -79.57400 | 1882 ft | 120 kts | 231° |
| 2026-05-07 20:58 | 43.73032 | -79.58241 | 1723 ft | 120 kts | 231° |
| 2026-05-07 20:58 | 43.72459 | -79.59074 | 1544 ft | 120 kts | 231° |
| 2026-05-07 20:58 | 43.71880 | -79.59914 | 1340 ft | 120 kts | 229° |
| 2026-05-07 20:58 | 43.71301 | -79.60761 | 1173 ft | 123 kts | 231° |
| 2026-05-07 20:59 | 43.70705 | -79.61625 | 981 ft | 124 kts | 231° |
| 2026-05-07 20:59 | 43.70109 | -79.62471 | 820 ft | 122 kts | 232° |
| 2026-05-07 20:59 | 43.69524 | -79.63333 | 640 ft | 123 kts | 231° |
| 2026-05-07 20:59 | 43.68972 | -79.64148 | 569 ft | 85 kts | 224° |
| 2026-05-07 21:00 | 43.68722 | -79.64513 | 557 ft | 43 kts | 227° |
| 2026-05-07 21:00 | 43.68686 | -79.64707 | 558 ft | 18 kts | 269° |
| 2026-05-07 21:00 | 43.68688 | -79.64861 | 558 ft | 13 kts | 270° |
| 2026-05-07 21:00 | 43.68688 | -79.64980 | 557 ft | 8 kts | 273° |
| 2026-05-07 21:01 | 43.68731 | -79.65031 | 567 ft | 9 kts | 353° |
| 2026-05-07 21:01 | 43.68796 | -79.65015 | 559 ft | 9 kts | 29° |
| 2026-05-07 21:01 | 43.68855 | -79.64933 | 562 ft | 15 kts | 46° |
| 2026-05-07 21:01 | 43.68924 | -79.64831 | 564 ft | 13 kts | 46° |
| 2026-05-07 21:02 | 43.68980 | -79.64817 | 563 ft | 8 kts | 312° |
| 2026-05-07 21:02 | 43.69001 | -79.64907 | 558 ft | 10 kts | 243° |
| 2026-05-07 21:02 | 43.68972 | -79.64977 | 558 ft | 0 kts | 240° |